createdAt,value
2017-08-26T00:00:39.642Z,6.70
2017-08-26T00:03:07.998Z,7.23
2017-08-26T00:05:35.534Z,8.20
2017-08-26T00:08:03.143Z,12.67
2017-08-26T00:10:30.681Z,15.10
2017-08-26T00:12:58.444Z,11.30
2017-08-26T00:15:33.843Z,10.40
2017-08-26T00:20:49.987Z,13.60
2017-08-26T00:23:27.796Z,18.50
2017-08-26T00:26:07.275Z,22.97
2017-08-26T00:28:51.016Z,24.33
2017-08-26T00:31:22.719Z,24.73
2017-08-26T00:33:50.275Z,22.77
2017-08-26T00:36:17.863Z,22.00
2017-08-26T00:38:45.435Z,20.80
2017-08-26T00:41:12.970Z,21.10
2017-08-26T00:43:40.515Z,21.07
2017-08-26T00:46:08.114Z,10.17
2017-08-26T00:48:35.661Z,7.63
2017-08-26T00:51:03.214Z,6.10
2017-08-26T00:53:30.833Z,6.03
2017-08-26T00:55:58.389Z,6.70
2017-08-26T00:58:25.903Z,5.90
2017-08-26T01:00:53.510Z,6.60
2017-08-26T01:03:21.040Z,6.57
2017-08-26T01:05:48.601Z,6.67
2017-08-26T01:08:16.158Z,6.63
2017-08-26T01:10:44.019Z,6.10
2017-08-26T01:13:11.621Z,6.27
2017-08-26T01:15:39.221Z,6.80
2017-08-26T01:18:06.774Z,7.70
2017-08-26T01:20:34.353Z,6.77
2017-08-26T01:23:02.472Z,7.27
2017-08-26T01:25:30.011Z,7.97
2017-08-26T01:27:57.575Z,8.37
2017-08-26T01:30:25.203Z,8.37
2017-08-26T01:32:52.731Z,8.93
2017-08-26T01:35:20.266Z,8.40
2017-08-26T01:37:47.824Z,9.23
2017-08-26T01:40:15.348Z,9.03
2017-08-26T01:42:42.870Z,11.23
2017-08-26T01:45:10.457Z,10.87
2017-08-26T01:47:37.971Z,10.47
2017-08-26T01:50:05.509Z,10.97
2017-08-26T01:52:33.062Z,12.43
2017-08-26T01:55:00.603Z,10.80
2017-08-26T01:57:28.117Z,12.27
2017-08-26T01:59:55.679Z,11.03
2017-08-26T02:02:23.277Z,12.43
2017-08-26T02:04:50.800Z,10.97
2017-08-26T02:07:18.329Z,12.67
2017-08-26T02:09:45.883Z,12.23
2017-08-26T02:12:13.670Z,10.90
2017-08-26T02:14:41.185Z,9.90
2017-08-26T02:17:08.741Z,9.30
2017-08-26T02:19:36.264Z,9.63
2017-08-26T02:22:03.797Z,9.50
2017-08-26T02:24:31.395Z,8.70
2017-08-26T02:26:58.927Z,7.90
2017-08-26T02:29:26.440Z,9.07
2017-08-26T02:31:54.029Z,8.93
2017-08-26T02:34:21.566Z,7.70
2017-08-26T02:36:49.304Z,8.10
2017-08-26T02:39:16.898Z,9.10
2017-08-26T02:41:44.403Z,7.83
2017-08-26T02:44:11.972Z,8.27
2017-08-26T02:46:39.576Z,7.70
2017-08-26T02:49:07.741Z,7.60
2017-08-26T02:51:35.308Z,7.40
2017-08-26T02:54:02.894Z,8.30
2017-08-26T02:56:30.417Z,11.73
2017-08-26T02:58:58.268Z,12.53
2017-08-26T03:01:25.863Z,12.57
2017-08-26T03:03:53.407Z,15.93
2017-08-26T03:06:20.913Z,14.47
2017-08-26T03:08:48.452Z,12.63
2017-08-26T03:11:16.231Z,10.47
2017-08-26T03:13:43.749Z,9.70
2017-08-26T03:16:11.849Z,8.77
2017-08-26T03:18:39.385Z,9.30
2017-08-26T03:21:06.930Z,10.00
2017-08-26T03:23:34.499Z,9.23
2017-08-26T03:26:02.009Z,8.40
2017-08-26T03:28:29.501Z,7.93
2017-08-26T03:30:57.140Z,8.57
2017-08-26T03:33:24.688Z,7.93
2017-08-26T03:35:52.230Z,8.60
2017-08-26T03:38:19.812Z,8.57
2017-08-26T03:40:47.648Z,8.00
2017-08-26T03:43:15.180Z,8.83
2017-08-26T03:45:42.720Z,9.23
2017-08-26T03:48:10.252Z,9.50
2017-08-26T03:50:37.784Z,9.47
2017-08-26T03:53:05.342Z,8.20
2017-08-26T03:55:32.883Z,9.87
2017-08-26T03:58:00.391Z,8.93
2017-08-26T04:00:27.971Z,13.80
2017-08-26T04:02:55.507Z,24.10
2017-08-26T04:05:23.118Z,34.80
2017-08-26T04:07:50.666Z,25.60
2017-08-26T04:10:18.197Z,32.80
2017-08-26T04:12:45.733Z,39.10
2017-08-26T04:15:13.509Z,21.80
2017-08-26T04:17:41.067Z,29.37
2017-08-26T04:20:08.958Z,28.40
2017-08-26T04:22:36.650Z,22.97
2017-08-26T04:25:04.212Z,21.27
2017-08-26T04:27:32.697Z,19.33
2017-08-26T04:30:00.260Z,18.90
2017-08-26T04:32:27.812Z,13.80
2017-08-26T04:34:55.343Z,13.27
2017-08-26T04:37:22.868Z,10.60
2017-08-26T04:39:50.467Z,9.60
2017-08-26T04:42:17.988Z,9.37
2017-08-26T04:44:45.499Z,9.87
2017-08-26T04:47:13.050Z,9.80
2017-08-26T04:49:40.580Z,10.00
2017-08-26T04:52:08.193Z,9.33
2017-08-26T04:54:35.764Z,11.87
2017-08-26T04:57:03.376Z,10.53
2017-08-26T04:59:30.949Z,13.23
2017-08-26T05:01:58.538Z,10.23
2017-08-26T05:04:26.108Z,10.37
2017-08-26T05:06:53.667Z,9.43
2017-08-26T05:09:21.255Z,9.93
2017-08-26T05:11:48.833Z,8.57
2017-08-26T05:14:16.397Z,9.43
2017-08-26T05:16:44.000Z,9.30
2017-08-26T05:19:11.542Z,9.23
2017-08-26T05:21:39.135Z,10.00
2017-08-26T05:24:06.738Z,8.63
2017-08-26T05:26:35.775Z,9.10
2017-08-26T05:29:03.761Z,9.27
2017-08-26T05:31:31.351Z,8.17
2017-08-26T05:33:59.151Z,7.83
2017-08-26T05:36:26.744Z,8.77
2017-08-26T05:38:54.367Z,7.73
2017-08-26T05:41:22.166Z,8.80
2017-08-26T05:43:50.043Z,9.10
2017-08-26T05:46:17.640Z,10.33
2017-08-26T05:48:46.013Z,11.07
2017-08-26T05:51:13.752Z,11.50
2017-08-26T05:53:41.835Z,11.60
2017-08-26T05:56:10.068Z,11.30
2017-08-26T05:58:37.744Z,12.30
2017-08-26T06:01:06.115Z,13.03
2017-08-26T06:03:33.865Z,12.00
2017-08-26T06:09:22.756Z,10.50
2017-08-26T06:11:50.478Z,11.67
2017-08-26T06:14:18.124Z,12.93
2017-08-26T06:16:45.859Z,11.20
2017-08-26T06:19:13.503Z,10.73
2017-08-26T06:21:41.198Z,11.20
2017-08-26T06:24:08.959Z,11.20
2017-08-26T06:26:36.663Z,9.03
2017-08-26T06:29:04.295Z,9.17
2017-08-26T06:31:32.170Z,9.03
2017-08-26T06:33:59.787Z,8.93
2017-08-26T06:36:27.361Z,8.70
2017-08-26T06:38:55.027Z,8.40
2017-08-26T06:41:23.667Z,8.47
2017-08-26T06:43:51.313Z,9.67
2017-08-26T06:46:19.725Z,8.30
2017-08-26T06:48:47.996Z,8.50
2017-08-26T06:51:15.698Z,8.90
2017-08-26T06:53:43.451Z,7.90
2017-08-26T06:56:11.774Z,8.03
2017-08-26T06:58:40.284Z,8.10
2017-08-26T07:01:08.565Z,7.57
2017-08-26T07:03:37.016Z,7.67
2017-08-26T07:06:04.631Z,6.97
2017-08-26T07:08:32.228Z,7.00
2017-08-26T07:11:00.168Z,6.93
2017-08-26T07:13:28.309Z,6.87
2017-08-26T07:15:58.021Z,7.43
2017-08-26T07:18:29.596Z,7.77
2017-08-26T07:20:58.115Z,7.60
2017-08-26T07:23:26.165Z,6.53
2017-08-26T07:25:53.984Z,7.37
2017-08-26T07:28:22.402Z,7.57
2017-08-26T07:30:53.144Z,7.30
2017-08-26T07:33:23.026Z,7.90
2017-08-26T07:35:51.930Z,8.00
2017-08-26T07:38:23.636Z,7.93
2017-08-26T07:40:54.581Z,6.87
2017-08-26T07:43:26.351Z,7.20
2017-08-26T07:46:11.351Z,6.70
2017-08-26T07:48:40.400Z,6.67
2017-08-26T07:51:09.294Z,7.83
2017-08-26T07:53:38.212Z,7.20
2017-08-26T07:56:06.216Z,6.90
2017-08-26T07:58:33.735Z,6.83
2017-08-26T08:01:01.894Z,6.30
2017-08-26T08:03:30.696Z,7.33
2017-08-26T08:05:58.686Z,7.00
2017-08-26T08:08:26.381Z,6.90
2017-08-26T08:11:10.432Z,7.10
2017-08-26T08:13:42.837Z,6.87
2017-08-26T08:16:12.658Z,6.53
2017-08-26T08:18:43.916Z,6.07
2017-08-26T08:21:14.141Z,6.43
2017-08-26T08:23:42.907Z,5.90
2017-08-26T08:26:11.172Z,6.20
2017-08-26T08:28:38.792Z,6.27
2017-08-26T08:31:07.130Z,5.53
2017-08-26T08:33:36.436Z,4.90
2017-08-26T08:36:03.959Z,5.77
2017-08-26T08:38:31.511Z,5.87
2017-08-26T08:40:59.043Z,5.30
2017-08-26T08:43:27.521Z,6.50
2017-08-26T08:45:56.356Z,5.27
2017-08-26T08:48:24.452Z,5.10
2017-08-26T08:50:52.686Z,5.17
2017-08-26T08:53:20.259Z,5.60
2017-08-26T08:55:47.857Z,5.67
2017-08-26T08:58:15.396Z,5.70
2017-08-26T09:00:42.977Z,5.50
2017-08-26T09:03:10.501Z,4.93
2017-08-26T09:05:38.327Z,5.30
2017-08-26T09:08:06.593Z,5.73
2017-08-26T09:10:34.115Z,4.90
2017-08-26T09:13:01.928Z,5.10
2017-08-26T09:15:29.581Z,4.70
2017-08-26T09:17:57.310Z,5.33
2017-08-26T09:20:25.233Z,5.00
2017-08-26T09:22:52.825Z,5.00
2017-08-26T09:25:20.641Z,5.47
2017-08-26T09:27:48.504Z,4.90
2017-08-26T09:30:16.232Z,6.10
2017-08-26T09:32:45.347Z,5.27
2017-08-26T09:35:12.846Z,4.83
2017-08-26T09:57:21.943Z,5.30
2017-08-26T10:02:35.834Z,6.07
2017-08-26T10:05:03.370Z,5.97
2017-08-26T10:07:30.887Z,4.50
2017-08-26T10:09:58.463Z,5.20
2017-08-26T10:12:26.343Z,10.73
2017-08-26T10:14:54.527Z,4.80
2017-08-26T10:17:22.071Z,5.17
2017-08-26T10:19:49.570Z,7.20
2017-08-26T10:22:17.065Z,5.00
2017-08-26T10:24:44.619Z,5.07
2017-08-26T10:27:12.408Z,4.40
2017-08-26T10:29:46.561Z,4.50
2017-08-26T10:32:14.245Z,4.27
2017-08-26T10:34:42.389Z,4.63
2017-08-26T10:37:10.938Z,4.77
2017-08-26T10:39:38.760Z,4.03
2017-08-26T10:42:06.273Z,4.30
2017-08-26T10:44:33.893Z,5.10
2017-08-26T10:47:01.445Z,3.90
2017-08-26T10:49:28.984Z,4.47
2017-08-26T10:51:56.537Z,3.97
2017-08-26T10:54:24.116Z,4.00
2017-08-26T10:56:51.657Z,4.60
2017-08-26T10:59:19.184Z,4.50
2017-08-26T11:01:47.871Z,5.03
2017-08-26T11:04:15.373Z,4.90
2017-08-26T11:06:42.898Z,4.73
2017-08-26T11:09:10.689Z,4.10
2017-08-26T11:11:38.222Z,4.40
2017-08-26T11:14:06.085Z,5.50
2017-08-26T11:16:33.621Z,4.37
2017-08-26T11:19:01.362Z,4.60
2017-08-26T11:21:28.868Z,4.40
2017-08-26T11:23:56.678Z,3.97
2017-08-26T11:26:24.513Z,4.60
2017-08-26T11:28:52.076Z,4.53
2017-08-26T11:31:22.778Z,4.10
2017-08-26T11:33:51.632Z,4.77
2017-08-26T11:36:57.907Z,4.17
2017-08-26T11:42:58.524Z,4.57
2017-08-26T11:48:36.039Z,5.80
2017-08-26T11:51:05.389Z,4.23
2017-08-26T11:53:36.060Z,5.40
2017-08-26T11:56:07.985Z,5.17
2017-08-26T11:58:39.782Z,8.53
2017-08-26T12:01:11.847Z,5.77
2017-08-26T12:03:44.353Z,5.43
2017-08-26T12:06:14.780Z,4.93
2017-08-26T12:08:46.381Z,5.63
2017-08-26T12:11:15.878Z,4.67
2017-08-26T12:13:48.227Z,4.80
2017-08-26T12:16:22.342Z,5.60
2017-08-26T12:18:54.993Z,5.30
2017-08-26T12:21:26.443Z,6.97
2017-08-26T12:23:58.765Z,4.50
2017-08-26T12:26:30.053Z,4.50
2017-08-26T12:29:07.017Z,4.67
2017-08-26T12:31:38.564Z,4.90
2017-08-26T12:34:09.565Z,4.50
2017-08-26T12:36:38.335Z,4.93
2017-08-26T12:41:45.396Z,4.67
2017-08-26T12:44:14.546Z,4.23
2017-08-26T12:46:49.010Z,4.60
2017-08-26T12:49:19.342Z,4.80
2017-08-26T12:51:52.488Z,3.80
2017-08-26T12:54:22.221Z,4.80
2017-08-26T12:56:52.851Z,4.40
2017-08-26T12:59:21.570Z,4.53
2017-08-26T13:01:51.666Z,5.27
2017-08-26T13:04:25.173Z,5.10
2017-08-26T13:06:58.430Z,4.60
2017-08-26T13:09:28.774Z,5.00
2017-08-26T13:11:57.876Z,5.50
2017-08-26T13:17:12.980Z,6.63
2017-08-26T13:19:41.821Z,6.00
2017-08-26T13:22:09.719Z,4.47
2017-08-26T13:24:38.464Z,6.17
2017-08-26T13:30:38.852Z,5.00
2017-08-26T13:33:06.630Z,5.70
2017-08-26T13:35:34.344Z,6.60
2017-08-26T13:38:04.091Z,4.83
2017-08-26T13:40:32.178Z,5.40
2017-08-26T13:43:00.794Z,5.40
2017-08-26T13:45:28.537Z,4.87
2017-08-26T13:47:58.656Z,5.77
2017-08-26T13:50:26.573Z,5.00
2017-08-26T13:52:54.720Z,5.47
2017-08-26T13:55:23.423Z,6.13
2017-08-26T13:57:51.065Z,4.90
2017-08-26T14:00:18.997Z,6.93
2017-08-26T14:02:47.420Z,5.03
2017-08-26T14:05:15.032Z,4.97
2017-08-26T14:07:42.648Z,4.80
2017-08-26T14:10:10.203Z,4.07
2017-08-26T14:12:38.775Z,4.13
2017-08-26T14:15:07.068Z,5.07
2017-08-26T14:17:35.400Z,4.83
2017-08-26T14:20:07.074Z,5.30
2017-08-26T14:22:34.864Z,4.07
2017-08-26T14:25:03.003Z,5.33
2017-08-26T14:27:30.656Z,4.20
2017-08-26T14:29:58.295Z,4.70
2017-08-26T14:32:26.383Z,4.23
2017-08-26T14:34:54.001Z,4.10
2017-08-26T14:37:22.410Z,4.73
2017-08-26T14:39:50.211Z,7.00
2017-08-26T14:42:17.804Z,5.90
2017-08-26T14:44:45.460Z,4.00
2017-08-26T14:47:13.100Z,4.80
2017-08-26T14:49:40.899Z,4.70
2017-08-26T14:52:11.856Z,4.00
2017-08-26T14:54:40.120Z,4.80
2017-08-26T14:57:08.582Z,5.17
2017-08-26T14:59:36.338Z,4.20
2017-08-26T15:02:04.609Z,5.50
2017-08-26T15:04:32.194Z,4.57
2017-08-26T15:06:59.830Z,4.53
2017-08-26T15:09:27.428Z,4.50
2017-08-26T15:11:55.316Z,4.80
2017-08-26T15:14:23.073Z,4.90
2017-08-26T15:16:50.701Z,4.20
2017-08-26T15:19:18.336Z,4.57
2017-08-26T15:21:45.902Z,4.00
2017-08-26T15:24:15.713Z,3.87
2017-08-26T15:26:56.389Z,4.70
2017-08-26T15:29:27.669Z,4.83
2017-08-26T15:31:55.523Z,4.53
2017-08-26T15:34:24.498Z,4.70
2017-08-26T15:36:54.165Z,5.13
2017-08-26T15:39:31.334Z,5.00
2017-08-26T15:42:00.633Z,4.90
2017-08-26T15:44:28.629Z,4.80
2017-08-26T15:46:56.383Z,5.20
2017-08-26T15:49:24.243Z,5.60
2017-08-26T15:51:51.867Z,5.33
2017-08-26T15:54:19.521Z,4.70
2017-08-26T15:56:47.133Z,5.10
2017-08-26T15:59:16.959Z,6.40
2017-08-26T16:01:45.001Z,5.50
2017-08-26T16:04:12.643Z,6.50
2017-08-26T16:06:40.259Z,9.33
2017-08-26T16:09:07.856Z,5.70
2017-08-26T16:11:35.453Z,6.20
2017-08-26T16:14:03.060Z,5.20
2017-08-26T16:16:31.523Z,5.37
2017-08-26T16:18:59.149Z,6.83
2017-08-26T16:21:26.722Z,5.60
2017-08-26T16:23:54.407Z,6.37
2017-08-26T16:26:22.202Z,6.20
2017-08-26T16:28:49.868Z,5.50
2017-08-26T16:31:17.469Z,5.57
2017-08-26T16:33:46.899Z,8.33
2017-08-26T16:36:14.500Z,7.37
2017-08-26T16:38:42.180Z,14.47
2017-08-26T16:41:09.859Z,10.43
2017-08-26T16:43:37.659Z,8.40
2017-08-26T16:46:05.318Z,7.20
2017-08-26T16:48:32.963Z,9.73
2017-08-26T16:51:00.662Z,18.87
2017-08-26T16:53:29.907Z,10.50
2017-08-26T16:55:59.347Z,6.80
2017-08-26T16:58:27.143Z,6.53
2017-08-26T17:00:54.779Z,8.30
2017-08-26T17:03:22.493Z,6.93
2017-08-26T17:05:50.231Z,6.47
2017-08-26T17:08:17.920Z,6.87
2017-08-26T17:10:45.525Z,6.93
2017-08-26T17:13:18.184Z,6.83
2017-08-26T17:15:45.838Z,7.30
2017-08-26T17:18:13.665Z,7.60
2017-08-26T17:20:41.277Z,6.70
2017-08-26T17:23:08.965Z,7.20
2017-08-26T17:25:36.609Z,9.00
2017-08-26T17:28:04.278Z,6.17
2017-08-26T17:30:32.057Z,8.23
2017-08-26T17:32:59.693Z,6.53
2017-08-26T17:35:27.246Z,7.93
2017-08-26T17:37:58.167Z,7.63
2017-08-26T17:40:25.765Z,8.07
2017-08-26T17:42:53.407Z,58.13
2017-08-26T17:45:21.396Z,11.17
2017-08-26T17:47:49.004Z,29.10
2017-08-26T17:50:21.606Z,7.70
2017-08-26T17:52:49.201Z,7.10
2017-08-26T17:55:17.316Z,6.93
2017-08-26T17:57:45.217Z,7.43
2017-08-26T18:00:13.661Z,12.07
2017-08-26T18:02:41.436Z,9.63
2017-08-26T18:05:09.071Z,10.13
2017-08-26T18:07:36.724Z,8.57
2017-08-26T18:10:04.374Z,9.10
2017-08-26T18:12:31.992Z,7.20
2017-08-26T18:15:00.288Z,8.33
2017-08-26T18:17:35.968Z,8.60
2017-08-26T18:20:04.468Z,8.80
2017-08-26T18:22:39.634Z,8.90
2017-08-26T18:25:11.811Z,8.27
2017-08-26T18:27:48.557Z,8.00
2017-08-26T18:30:20.838Z,7.73
2017-08-26T18:32:53.025Z,6.20
2017-08-26T18:35:24.045Z,8.43
2017-08-26T18:37:56.206Z,8.20
2017-08-26T18:40:29.910Z,7.57
2017-08-26T18:42:59.877Z,7.77
2017-08-26T18:45:27.631Z,8.07
2017-08-26T18:47:56.236Z,10.27
2017-08-26T18:50:24.277Z,8.30
2017-08-26T18:52:52.668Z,8.37
2017-08-26T18:55:22.940Z,9.40
2017-08-26T18:57:51.840Z,8.10
2017-08-26T19:00:19.671Z,9.30
2017-08-26T19:06:13.660Z,8.37
2017-08-26T19:08:44.060Z,8.73
2017-08-26T19:18:43.997Z,9.33
2017-08-26T19:21:12.464Z,9.10
2017-08-26T19:23:40.002Z,9.27
2017-08-26T19:26:08.915Z,8.70
2017-08-26T19:28:36.452Z,9.80
2017-08-26T19:31:04.963Z,9.93
2017-08-26T19:33:32.561Z,10.37
2017-08-26T19:36:00.099Z,10.40
2017-08-26T19:38:27.896Z,10.40
2017-08-26T19:40:55.438Z,11.17
2017-08-26T19:43:23.491Z,11.90
2017-08-26T19:45:51.057Z,11.93
2017-08-26T19:48:18.570Z,10.37
2017-08-26T19:50:46.107Z,9.47
2017-08-26T19:53:13.894Z,10.13
2017-08-26T19:55:41.421Z,10.97
2017-08-26T19:58:11.728Z,11.00
2017-08-26T20:00:42.092Z,10.20
2017-08-26T20:03:09.670Z,11.07
2017-08-26T20:05:37.214Z,10.93
2017-08-26T20:08:05.131Z,12.23
2017-08-26T20:10:33.728Z,13.00
2017-08-26T20:13:02.594Z,11.87
2017-08-26T20:15:30.298Z,12.90
2017-08-26T20:17:58.060Z,12.10
2017-08-26T20:20:25.640Z,13.33
2017-08-26T20:22:53.266Z,12.73
2017-08-26T20:25:20.806Z,15.10
2017-08-26T20:27:49.929Z,16.80
2017-08-26T20:30:17.696Z,16.13
2017-08-26T20:32:46.321Z,15.87
2017-08-26T20:35:13.879Z,15.10
2017-08-26T20:37:41.496Z,17.77
2017-08-26T20:40:10.292Z,16.10
2017-08-26T20:42:39.463Z,14.67
2017-08-26T20:45:13.689Z,15.10
2017-08-26T20:47:41.252Z,13.20
2017-08-26T20:50:09.004Z,11.87
2017-08-26T20:52:42.062Z,11.83
2017-08-26T20:55:16.732Z,9.67
2017-08-26T20:57:45.568Z,8.83
2017-08-26T21:00:14.600Z,7.47
2017-08-26T21:02:42.221Z,8.37
2017-08-26T21:05:09.805Z,8.10
2017-08-26T21:07:40.341Z,7.90
2017-08-26T21:10:09.580Z,8.37
2017-08-26T21:12:37.173Z,7.70
2017-08-26T21:15:05.469Z,7.20
2017-08-26T21:17:33.224Z,8.07
2017-08-26T21:20:00.779Z,7.53
2017-08-26T21:22:28.325Z,7.20
2017-08-26T21:24:55.966Z,7.97
2017-08-26T21:27:23.539Z,7.73
2017-08-26T21:29:51.134Z,9.03
2017-08-26T21:32:18.859Z,7.77
2017-08-26T21:34:46.379Z,6.27
2017-08-26T21:37:13.919Z,7.43
2017-08-26T21:39:41.735Z,7.13
2017-08-26T21:42:09.936Z,7.40
2017-08-26T21:44:37.460Z,6.57
2017-08-26T21:47:06.937Z,7.63
2017-08-26T21:49:34.491Z,6.50
2017-08-26T21:52:01.997Z,7.80
2017-08-26T21:54:29.603Z,7.10
2017-08-26T21:56:57.135Z,6.80
2017-08-26T21:59:25.024Z,7.20
2017-08-26T22:01:53.402Z,8.70
2017-08-26T22:04:20.956Z,8.03
2017-08-26T22:06:48.701Z,7.83
2017-08-26T22:09:16.300Z,7.07
2017-08-26T22:11:44.148Z,6.40
2017-08-26T22:14:11.989Z,6.57
2017-08-26T22:16:39.831Z,6.63
2017-08-26T22:19:07.471Z,6.30
2017-08-26T22:21:36.822Z,7.60
2017-08-26T22:24:04.411Z,6.00
2017-08-26T22:26:31.940Z,6.77
2017-08-26T22:28:59.453Z,6.50
2017-08-26T22:31:27.011Z,6.87
2017-08-26T22:33:54.772Z,7.37
2017-08-26T22:36:22.347Z,6.63
2017-08-26T22:38:49.940Z,6.80
2017-08-26T22:41:17.476Z,7.10
2017-08-26T22:43:45.128Z,6.67
2017-08-26T22:46:12.778Z,6.97
2017-08-26T22:48:41.301Z,6.30
2017-08-26T22:51:08.850Z,6.60
2017-08-26T22:53:36.448Z,6.60
2017-08-26T22:56:04.028Z,7.00
2017-08-26T22:58:31.577Z,7.20
2017-08-26T23:00:59.294Z,7.10
2017-08-26T23:03:28.205Z,7.60
2017-08-26T23:05:55.728Z,6.97
2017-08-26T23:08:23.310Z,6.60
2017-08-26T23:10:50.868Z,6.07
2017-08-26T23:13:18.437Z,7.23
2017-08-26T23:15:46.012Z,5.90
2017-08-26T23:18:13.634Z,6.10
2017-08-26T23:20:41.194Z,6.10
2017-08-26T23:23:08.804Z,6.97
2017-08-26T23:25:36.346Z,6.53
2017-08-26T23:28:04.024Z,7.00
2017-08-26T23:30:31.700Z,6.77
2017-08-26T23:33:00.094Z,7.20
2017-08-26T23:35:27.701Z,7.00
2017-08-26T23:37:55.642Z,6.70
2017-08-26T23:40:23.205Z,7.00
2017-08-26T23:42:50.829Z,6.93
2017-08-26T23:45:19.497Z,6.80
2017-08-26T23:47:47.560Z,8.63
2017-08-26T23:50:15.401Z,6.40
2017-08-26T23:52:44.795Z,6.43
2017-08-26T23:55:13.089Z,6.40
2017-08-26T23:57:41.056Z,7.00
